sensor_id;sensor_type;location;lat;lon;timestamp;temperature;humidity
5274;DHT22;56254;50.956;7.010;2022-08-07T00:01:20;18.10;69.80
5274;DHT22;56254;50.956;7.010;2022-08-07T00:03:45;18.10;69.90
5274;DHT22;56254;50.956;7.010;2022-08-07T00:06:11;18.10;70.00
5274;DHT22;56254;50.956;7.010;2022-08-07T00:08:38;18.10;70.80
5274;DHT22;56254;50.956;7.010;2022-08-07T00:11:04;18.10;70.60
5274;DHT22;56254;50.956;7.010;2022-08-07T00:13:31;18.10;70.00
5274;DHT22;56254;50.956;7.010;2022-08-07T00:15:57;18.10;69.90
5274;DHT22;56254;50.956;7.010;2022-08-07T00:18:26;18.10;69.80
5274;DHT22;56254;50.956;7.010;2022-08-07T00:20:57;18.00;71.10
5274;DHT22;56254;50.956;7.010;2022-08-07T00:23:23;17.90;70.50
5274;DHT22;56254;50.956;7.010;2022-08-07T00:25:50;17.80;71.20
5274;DHT22;56254;50.956;7.010;2022-08-07T00:28:22;17.80;71.20
5274;DHT22;56254;50.956;7.010;2022-08-07T00:30:48;17.80;72.20
5274;DHT22;56254;50.956;7.010;2022-08-07T00:33:15;17.80;71.90
5274;DHT22;56254;50.956;7.010;2022-08-07T00:35:41;17.80;72.10
5274;DHT22;56254;50.956;7.010;2022-08-07T00:38:06;17.80;71.80
5274;DHT22;56254;50.956;7.010;2022-08-07T00:40:32;17.70;71.40
5274;DHT22;56254;50.956;7.010;2022-08-07T00:42:58;17.80;71.20
5274;DHT22;56254;50.956;7.010;2022-08-07T00:45:24;17.80;71.90
5274;DHT22;56254;50.956;7.010;2022-08-07T00:47:50;17.70;71.80
5274;DHT22;56254;50.956;7.010;2022-08-07T00:50:16;17.70;71.60
5274;DHT22;56254;50.956;7.010;2022-08-07T00:52:42;17.40;71.70
5274;DHT22;56254;50.956;7.010;2022-08-07T00:55:09;17.50;71.20
5274;DHT22;56254;50.956;7.010;2022-08-07T00:57:35;17.40;71.70
5274;DHT22;56254;50.956;7.010;2022-08-07T01:00:05;17.40;71.50
5274;DHT22;56254;50.956;7.010;2022-08-07T01:02:32;17.50;73.10
5274;DHT22;56254;50.956;7.010;2022-08-07T01:04:58;17.50;74.00
5274;DHT22;56254;50.956;7.010;2022-08-07T01:07:25;17.50;72.60
5274;DHT22;56254;50.956;7.010;2022-08-07T01:09:51;17.40;72.70
5274;DHT22;56254;50.956;7.010;2022-08-07T01:12:17;17.30;73.70
5274;DHT22;56254;50.956;7.010;2022-08-07T01:14:43;17.30;73.30
5274;DHT22;56254;50.956;7.010;2022-08-07T01:17:10;17.30;72.20
5274;DHT22;56254;50.956;7.010;2022-08-07T01:19:36;17.10;73.10
5274;DHT22;56254;50.956;7.010;2022-08-07T01:22:02;17.10;73.00
5274;DHT22;56254;50.956;7.010;2022-08-07T01:24:29;17.00;73.80
5274;DHT22;56254;50.956;7.010;2022-08-07T01:26:55;17.10;73.20
5274;DHT22;56254;50.956;7.010;2022-08-07T01:29:22;17.00;73.20
5274;DHT22;56254;50.956;7.010;2022-08-07T01:31:49;16.80;74.00
5274;DHT22;56254;50.956;7.010;2022-08-07T01:34:16;16.90;75.00
5274;DHT22;56254;50.956;7.010;2022-08-07T01:36:46;16.80;75.10
5274;DHT22;56254;50.956;7.010;2022-08-07T01:39:12;16.80;76.20
5274;DHT22;56254;50.956;7.010;2022-08-07T01:41:39;16.60;76.00
5274;DHT22;56254;50.956;7.010;2022-08-07T01:44:08;16.60;77.00
5274;DHT22;56254;50.956;7.010;2022-08-07T01:46:34;16.60;77.30
5274;DHT22;56254;50.956;7.010;2022-08-07T01:49:01;16.60;78.00
5274;DHT22;56254;50.956;7.010;2022-08-07T01:51:28;16.60;77.70
5274;DHT22;56254;50.956;7.010;2022-08-07T01:54:01;16.40;77.90
5274;DHT22;56254;50.956;7.010;2022-08-07T01:56:51;16.50;78.10
5274;DHT22;56254;50.956;7.010;2022-08-07T02:02:10;16.20;79.20
5274;DHT22;56254;50.956;7.010;2022-08-07T02:04:46;16.20;79.40
5274;DHT22;56254;50.956;7.010;2022-08-07T02:07:16;16.30;79.60
5274;DHT22;56254;50.956;7.010;2022-08-07T02:09:45;16.40;79.10
5274;DHT22;56254;50.956;7.010;2022-08-07T02:12:12;16.30;79.30
5274;DHT22;56254;50.956;7.010;2022-08-07T02:14:46;16.30;78.80
5274;DHT22;56254;50.956;7.010;2022-08-07T02:17:14;16.20;79.40
5274;DHT22;56254;50.956;7.010;2022-08-07T02:19:42;16.10;79.80
5274;DHT22;56254;50.956;7.010;2022-08-07T02:22:11;16.10;80.10
5274;DHT22;56254;50.956;7.010;2022-08-07T02:24:39;16.00;80.50
5274;DHT22;56254;50.956;7.010;2022-08-07T02:27:06;16.00;80.80
5274;DHT22;56254;50.956;7.010;2022-08-07T02:29:33;15.90;81.00
5274;DHT22;56254;50.956;7.010;2022-08-07T02:32:00;16.00;80.90
5274;DHT22;56254;50.956;7.010;2022-08-07T02:34:28;15.90;80.80
5274;DHT22;56254;50.956;7.010;2022-08-07T02:36:55;15.90;81.30
5274;DHT22;56254;50.956;7.010;2022-08-07T02:39:22;15.80;81.80
5274;DHT22;56254;50.956;7.010;2022-08-07T02:41:50;15.80;82.10
5274;DHT22;56254;50.956;7.010;2022-08-07T02:44:17;15.80;82.60
5274;DHT22;56254;50.956;7.010;2022-08-07T02:46:44;15.80;82.90
5274;DHT22;56254;50.956;7.010;2022-08-07T02:49:12;15.80;82.20
5274;DHT22;56254;50.956;7.010;2022-08-07T02:51:39;15.90;81.80
5274;DHT22;56254;50.956;7.010;2022-08-07T02:54:08;15.80;81.70
5274;DHT22;56254;50.956;7.010;2022-08-07T02:56:37;15.80;81.30
5274;DHT22;56254;50.956;7.010;2022-08-07T02:59:06;15.70;81.50
5274;DHT22;56254;50.956;7.010;2022-08-07T03:01:37;15.70;81.80
5274;DHT22;56254;50.956;7.010;2022-08-07T03:04:05;15.70;82.30
5274;DHT22;56254;50.956;7.010;2022-08-07T03:06:32;15.50;83.10
5274;DHT22;56254;50.956;7.010;2022-08-07T03:09:00;15.40;84.80
5274;DHT22;56254;50.956;7.010;2022-08-07T03:11:26;15.40;85.60
5274;DHT22;56254;50.956;7.010;2022-08-07T03:13:52;15.50;83.70
5274;DHT22;56254;50.956;7.010;2022-08-07T03:16:19;15.40;84.00
5274;DHT22;56254;50.956;7.010;2022-08-07T03:18:45;15.40;83.40
5274;DHT22;56254;50.956;7.010;2022-08-07T03:21:11;15.40;83.00
5274;DHT22;56254;50.956;7.010;2022-08-07T03:23:38;15.30;84.30
5274;DHT22;56254;50.956;7.010;2022-08-07T03:26:13;15.20;84.10
5274;DHT22;56254;50.956;7.010;2022-08-07T03:28:44;15.20;84.70
5274;DHT22;56254;50.956;7.010;2022-08-07T03:31:10;15.30;84.60
5274;DHT22;56254;50.956;7.010;2022-08-07T03:34:01;15.30;85.10
5274;DHT22;56254;50.956;7.010;2022-08-07T03:36:29;15.30;84.70
5274;DHT22;56254;50.956;7.010;2022-08-07T03:39:04;15.30;84.50
5274;DHT22;56254;50.956;7.010;2022-08-07T03:41:32;15.20;84.10
5274;DHT22;56254;50.956;7.010;2022-08-07T03:43:59;15.30;83.90
5274;DHT22;56254;50.956;7.010;2022-08-07T03:46:27;15.30;83.50
5274;DHT22;56254;50.956;7.010;2022-08-07T03:48:53;15.20;83.40
5274;DHT22;56254;50.956;7.010;2022-08-07T03:51:20;15.30;84.50
5274;DHT22;56254;50.956;7.010;2022-08-07T03:53:47;15.20;84.50
5274;DHT22;56254;50.956;7.010;2022-08-07T03:56:19;15.30;84.10
5274;DHT22;56254;50.956;7.010;2022-08-07T03:58:45;15.40;83.50
5274;DHT22;56254;50.956;7.010;2022-08-07T04:01:13;15.30;83.20
5274;DHT22;56254;50.956;7.010;2022-08-07T04:03:39;15.30;83.60
5274;DHT22;56254;50.956;7.010;2022-08-07T04:06:09;15.30;83.60
5274;DHT22;56254;50.956;7.010;2022-08-07T04:08:37;15.30;83.60
5274;DHT22;56254;50.956;7.010;2022-08-07T04:11:04;15.30;83.80
5274;DHT22;56254;50.956;7.010;2022-08-07T04:13:32;15.20;83.70
5274;DHT22;56254;50.956;7.010;2022-08-07T04:15:58;15.20;84.50
5274;DHT22;56254;50.956;7.010;2022-08-07T04:18:24;15.20;84.00
5274;DHT22;56254;50.956;7.010;2022-08-07T04:20:50;15.20;83.90
5274;DHT22;56254;50.956;7.010;2022-08-07T04:23:17;15.20;83.20
5274;DHT22;56254;50.956;7.010;2022-08-07T04:25:43;15.30;83.60
5274;DHT22;56254;50.956;7.010;2022-08-07T04:28:10;15.30;83.40
5274;DHT22;56254;50.956;7.010;2022-08-07T04:30:38;15.30;83.30
5274;DHT22;56254;50.956;7.010;2022-08-07T04:33:06;15.30;84.30
5274;DHT22;56254;50.956;7.010;2022-08-07T04:35:39;15.20;83.80
5274;DHT22;56254;50.956;7.010;2022-08-07T04:38:08;15.40;84.60
5274;DHT22;56254;50.956;7.010;2022-08-07T04:40:39;15.30;83.70
5274;DHT22;56254;50.956;7.010;2022-08-07T04:43:05;15.30;84.60
5274;DHT22;56254;50.956;7.010;2022-08-07T04:48:48;15.30;84.10
5274;DHT22;56254;50.956;7.010;2022-08-07T04:57:16;15.40;84.50
5274;DHT22;56254;50.956;7.010;2022-08-07T05:00:01;15.50;83.40
5274;DHT22;56254;50.956;7.010;2022-08-07T05:10:34;15.50;82.60
5274;DHT22;56254;50.956;7.010;2022-08-07T05:13:02;15.50;82.30
5274;DHT22;56254;50.956;7.010;2022-08-07T05:15:36;15.70;83.30
5274;DHT22;56254;50.956;7.010;2022-08-07T05:18:10;15.60;82.80
5274;DHT22;56254;50.956;7.010;2022-08-07T05:20:48;15.60;82.30
5274;DHT22;56254;50.956;7.010;2022-08-07T05:23:24;15.60;81.30
5274;DHT22;56254;50.956;7.010;2022-08-07T05:25:54;15.60;81.50
5274;DHT22;56254;50.956;7.010;2022-08-07T05:28:22;15.70;81.50
5274;DHT22;56254;50.956;7.010;2022-08-07T05:30:56;15.60;81.60
5274;DHT22;56254;50.956;7.010;2022-08-07T05:33:22;15.70;81.40
5274;DHT22;56254;50.956;7.010;2022-08-07T05:35:50;15.70;81.20
5274;DHT22;56254;50.956;7.010;2022-08-07T05:38:19;15.70;81.30
5274;DHT22;56254;50.956;7.010;2022-08-07T05:40:46;15.80;80.30
5274;DHT22;56254;50.956;7.010;2022-08-07T05:43:13;15.80;80.70
5274;DHT22;56254;50.956;7.010;2022-08-07T05:45:40;15.90;80.20
5274;DHT22;56254;50.956;7.010;2022-08-07T05:48:08;16.00;80.50
5274;DHT22;56254;50.956;7.010;2022-08-07T05:50:34;16.20;79.50
5274;DHT22;56254;50.956;7.010;2022-08-07T05:53:04;16.20;79.20
5274;DHT22;56254;50.956;7.010;2022-08-07T05:55:36;16.20;79.00
5274;DHT22;56254;50.956;7.010;2022-08-07T05:58:03;16.30;78.60
5274;DHT22;56254;50.956;7.010;2022-08-07T06:00:32;16.40;78.50
5274;DHT22;56254;50.956;7.010;2022-08-07T06:02:59;16.30;78.50
5274;DHT22;56254;50.956;7.010;2022-08-07T06:05:26;16.50;77.90
5274;DHT22;56254;50.956;7.010;2022-08-07T06:07:57;16.60;77.70
5274;DHT22;56254;50.956;7.010;2022-08-07T06:10:24;16.50;78.00
5274;DHT22;56254;50.956;7.010;2022-08-07T06:12:51;16.80;77.00
5274;DHT22;56254;50.956;7.010;2022-08-07T06:15:17;16.80;77.10
5274;DHT22;56254;50.956;7.010;2022-08-07T06:17:44;16.80;76.80
5274;DHT22;56254;50.956;7.010;2022-08-07T06:20:10;16.90;76.70
5274;DHT22;56254;50.956;7.010;2022-08-07T06:22:39;16.80;76.80
5274;DHT22;56254;50.956;7.010;2022-08-07T06:25:05;17.10;76.10
5274;DHT22;56254;50.956;7.010;2022-08-07T06:27:31;17.10;74.90
5274;DHT22;56254;50.956;7.010;2022-08-07T06:29:59;17.20;76.30
5274;DHT22;56254;50.956;7.010;2022-08-07T06:32:25;17.40;75.40
5274;DHT22;56254;50.956;7.010;2022-08-07T06:34:51;17.80;74.50
5274;DHT22;56254;50.956;7.010;2022-08-07T06:37:18;18.10;73.60
5274;DHT22;56254;50.956;7.010;2022-08-07T06:39:43;18.20;70.60
5274;DHT22;56254;50.956;7.010;2022-08-07T06:42:27;18.30;70.60
5274;DHT22;56254;50.956;7.010;2022-08-07T06:44:56;19.70;66.90
5274;DHT22;56254;50.956;7.010;2022-08-07T06:47:23;22.80;58.20
5274;DHT22;56254;50.956;7.010;2022-08-07T06:49:53;25.90;50.70
5274;DHT22;56254;50.956;7.010;2022-08-07T06:52:29;27.50;46.50
5274;DHT22;56254;50.956;7.010;2022-08-07T06:55:01;28.60;44.40
5274;DHT22;56254;50.956;7.010;2022-08-07T06:57:28;29.50;42.10
5274;DHT22;56254;50.956;7.010;2022-08-07T07:00:03;30.10;40.40
5274;DHT22;56254;50.956;7.010;2022-08-07T07:02:29;30.20;40.60
5274;DHT22;56254;50.956;7.010;2022-08-07T07:04:57;30.70;39.70
5274;DHT22;56254;50.956;7.010;2022-08-07T07:07:24;31.20;39.20
5274;DHT22;56254;50.956;7.010;2022-08-07T07:09:50;32.00;36.80
5274;DHT22;56254;50.956;7.010;2022-08-07T07:15:13;31.50;37.50
5274;DHT22;56254;50.956;7.010;2022-08-07T07:20:37;31.60;37.70
5274;DHT22;56254;50.956;7.010;2022-08-07T07:23:05;32.00;36.40
5274;DHT22;56254;50.956;7.010;2022-08-07T07:25:34;32.30;36.00
5274;DHT22;56254;50.956;7.010;2022-08-07T07:28:24;32.50;35.10
5274;DHT22;56254;50.956;7.010;2022-08-07T07:41:05;32.10;34.90
5274;DHT22;56254;50.956;7.010;2022-08-07T07:43:33;32.30;35.50
5274;DHT22;56254;50.956;7.010;2022-08-07T07:46:01;32.00;35.40
5274;DHT22;56254;50.956;7.010;2022-08-07T07:48:29;31.70;34.90
5274;DHT22;56254;50.956;7.010;2022-08-07T07:50:56;31.70;35.20
5274;DHT22;56254;50.956;7.010;2022-08-07T07:53:27;31.30;35.50
5274;DHT22;56254;50.956;7.010;2022-08-07T07:55:56;30.80;35.70
5274;DHT22;56254;50.956;7.010;2022-08-07T07:58:25;29.80;36.20
5274;DHT22;56254;50.956;7.010;2022-08-07T08:00:54;29.00;37.90
5274;DHT22;56254;50.956;7.010;2022-08-07T08:03:22;28.60;38.50
5274;DHT22;56254;50.956;7.010;2022-08-07T08:05:50;28.40;39.70
5274;DHT22;56254;50.956;7.010;2022-08-07T08:08:17;27.50;40.80
5274;DHT22;56254;50.956;7.010;2022-08-07T08:10:45;26.50;41.60
5274;DHT22;56254;50.956;7.010;2022-08-07T08:13:12;25.70;43.10
5274;DHT22;56254;50.956;7.010;2022-08-07T08:15:43;25.10;43.30
5274;DHT22;56254;50.956;7.010;2022-08-07T08:18:11;24.80;44.50
5274;DHT22;56254;50.956;7.010;2022-08-07T08:20:38;24.50;44.80
5274;DHT22;56254;50.956;7.010;2022-08-07T08:23:09;24.10;44.70
5274;DHT22;56254;50.956;7.010;2022-08-07T08:25:55;23.60;46.80
5274;DHT22;56254;50.956;7.010;2022-08-07T08:28:42;23.60;48.00
5274;DHT22;56254;50.956;7.010;2022-08-07T08:31:10;23.60;48.30
5274;DHT22;56254;50.956;7.010;2022-08-07T08:33:38;23.60;47.80
5274;DHT22;56254;50.956;7.010;2022-08-07T08:36:07;23.50;47.70
5274;DHT22;56254;50.956;7.010;2022-08-07T08:38:39;23.50;48.10
5274;DHT22;56254;50.956;7.010;2022-08-07T08:41:18;23.50;47.70
5274;DHT22;56254;50.956;7.010;2022-08-07T08:49:52;23.10;49.70
5274;DHT22;56254;50.956;7.010;2022-08-07T08:52:37;23.20;48.20
5274;DHT22;56254;50.956;7.010;2022-08-07T08:57:43;23.60;49.40
5274;DHT22;56254;50.956;7.010;2022-08-07T09:00:12;23.60;46.80
5274;DHT22;56254;50.956;7.010;2022-08-07T09:16:21;24.00;46.60
5274;DHT22;56254;50.956;7.010;2022-08-07T09:22:28;24.00;45.50
5274;DHT22;56254;50.956;7.010;2022-08-07T09:25:25;24.20;45.00
5274;DHT22;56254;50.956;7.010;2022-08-07T09:28:10;24.20;44.10
5274;DHT22;56254;50.956;7.010;2022-08-07T09:33:59;24.30;44.40
5274;DHT22;56254;50.956;7.010;2022-08-07T09:39:48;24.20;43.30
5274;DHT22;56254;50.956;7.010;2022-08-07T09:45:24;24.40;44.10
5274;DHT22;56254;50.956;7.010;2022-08-07T09:50:49;24.30;43.20
5274;DHT22;56254;50.956;7.010;2022-08-07T09:53:20;24.40;43.80
5274;DHT22;56254;50.956;7.010;2022-08-07T10:02:00;24.60;41.70
5274;DHT22;56254;50.956;7.010;2022-08-07T10:18:58;25.00;40.80
5274;DHT22;56254;50.956;7.010;2022-08-07T10:35:49;25.50;41.30
5274;DHT22;56254;50.956;7.010;2022-08-07T10:41:06;25.50;40.90
5274;DHT22;56254;50.956;7.010;2022-08-07T10:43:38;25.80;39.90
5274;DHT22;56254;50.956;7.010;2022-08-07T10:46:18;25.50;39.80
5274;DHT22;56254;50.956;7.010;2022-08-07T10:51:50;25.80;39.50
5274;DHT22;56254;50.956;7.010;2022-08-07T11:08:31;26.10;38.80
5274;DHT22;56254;50.956;7.010;2022-08-07T11:12:22;26.20;38.40
5274;DHT22;56254;50.956;7.010;2022-08-07T11:14:27;26.40;37.80
5274;DHT22;56254;50.956;7.010;2022-08-07T11:17:13;26.40;38.20
5274;DHT22;56254;50.956;7.010;2022-08-07T11:19:54;26.60;38.70
5274;DHT22;56254;50.956;7.010;2022-08-07T11:22:28;26.60;38.90
5274;DHT22;56254;50.956;7.010;2022-08-07T11:28:22;26.70;38.50
5274;DHT22;56254;50.956;7.010;2022-08-07T11:30:57;26.70;38.30
5274;DHT22;56254;50.956;7.010;2022-08-07T11:33:53;26.60;38.20
5274;DHT22;56254;50.956;7.010;2022-08-07T11:51:26;26.90;37.00
5274;DHT22;56254;50.956;7.010;2022-08-07T11:59:39;27.20;38.10
5274;DHT22;56254;50.956;7.010;2022-08-07T12:07:50;27.70;37.50
5274;DHT22;56254;50.956;7.010;2022-08-07T12:10:30;27.60;36.40
5274;DHT22;56254;50.956;7.010;2022-08-07T12:13:05;27.30;36.80
5274;DHT22;56254;50.956;7.010;2022-08-07T12:15:41;27.50;37.20
5274;DHT22;56254;50.956;7.010;2022-08-07T12:18:40;27.60;37.20
5274;DHT22;56254;50.956;7.010;2022-08-07T12:23:49;27.70;36.80
5274;DHT22;56254;50.956;7.010;2022-08-07T12:26:37;27.90;36.60
5274;DHT22;56254;50.956;7.010;2022-08-07T12:29:15;28.00;36.70
5274;DHT22;56254;50.956;7.010;2022-08-07T12:34:49;27.60;36.60
5274;DHT22;56254;50.956;7.010;2022-08-07T12:37:16;27.30;36.80
5274;DHT22;56254;50.956;7.010;2022-08-07T12:39:47;27.70;36.80
5274;DHT22;56254;50.956;7.010;2022-08-07T12:42:17;27.90;36.40
5274;DHT22;56254;50.956;7.010;2022-08-07T12:44:46;28.10;36.60
5274;DHT22;56254;50.956;7.010;2022-08-07T12:55:30;28.20;36.40
5274;DHT22;56254;50.956;7.010;2022-08-07T12:57:58;28.20;35.40
5274;DHT22;56254;50.956;7.010;2022-08-07T13:00:46;28.40;35.60
5274;DHT22;56254;50.956;7.010;2022-08-07T13:06:25;28.30;35.30
5274;DHT22;56254;50.956;7.010;2022-08-07T13:09:05;28.40;35.20
5274;DHT22;56254;50.956;7.010;2022-08-07T13:17:02;28.50;34.70
5274;DHT22;56254;50.956;7.010;2022-08-07T13:19:59;28.60;35.50
5274;DHT22;56254;50.956;7.010;2022-08-07T13:22:38;28.50;34.60
5274;DHT22;56254;50.956;7.010;2022-08-07T13:25:10;28.50;33.90
5274;DHT22;56254;50.956;7.010;2022-08-07T13:27:41;28.30;34.80
5274;DHT22;56254;50.956;7.010;2022-08-07T13:30:10;28.30;34.50
5274;DHT22;56254;50.956;7.010;2022-08-07T13:33:03;28.70;33.60
5274;DHT22;56254;50.956;7.010;2022-08-07T13:35:38;28.80;33.80
5274;DHT22;56254;50.956;7.010;2022-08-07T13:39:02;28.60;33.30
5274;DHT22;56254;50.956;7.010;2022-08-07T13:41:49;28.80;33.70
5274;DHT22;56254;50.956;7.010;2022-08-07T13:44:27;28.90;34.40
5274;DHT22;56254;50.956;7.010;2022-08-07T13:46:57;28.90;33.90
5274;DHT22;56254;50.956;7.010;2022-08-07T13:49:23;28.90;34.50
5274;DHT22;56254;50.956;7.010;2022-08-07T13:51:53;29.00;33.20
5274;DHT22;56254;50.956;7.010;2022-08-07T13:54:26;28.90;34.20
5274;DHT22;56254;50.956;7.010;2022-08-07T13:56:55;28.90;32.70
5274;DHT22;56254;50.956;7.010;2022-08-07T13:59:31;28.90;33.60
5274;DHT22;56254;50.956;7.010;2022-08-07T14:02:00;29.00;33.60
5274;DHT22;56254;50.956;7.010;2022-08-07T14:04:50;28.80;33.20
5274;DHT22;56254;50.956;7.010;2022-08-07T14:07:20;28.70;33.60
5274;DHT22;56254;50.956;7.010;2022-08-07T14:09:52;28.80;33.60
5274;DHT22;56254;50.956;7.010;2022-08-07T14:12:25;28.90;34.00
5274;DHT22;56254;50.956;7.010;2022-08-07T14:14:59;28.90;33.70
5274;DHT22;56254;50.956;7.010;2022-08-07T14:17:28;29.00;32.70
5274;DHT22;56254;50.956;7.010;2022-08-07T14:20:01;28.90;32.40
5274;DHT22;56254;50.956;7.010;2022-08-07T14:22:32;28.90;32.90
5274;DHT22;56254;50.956;7.010;2022-08-07T14:25:09;28.90;33.00
5274;DHT22;56254;50.956;7.010;2022-08-07T14:27:55;29.10;32.80
5274;DHT22;56254;50.956;7.010;2022-08-07T14:30:24;29.20;32.00
5274;DHT22;56254;50.956;7.010;2022-08-07T14:32:56;29.20;31.80
5274;DHT22;56254;50.956;7.010;2022-08-07T14:35:28;29.00;32.40
5274;DHT22;56254;50.956;7.010;2022-08-07T14:37:57;28.80;33.30
5274;DHT22;56254;50.956;7.010;2022-08-07T14:40:26;29.00;33.10
5274;DHT22;56254;50.956;7.010;2022-08-07T14:43:12;29.00;33.40
5274;DHT22;56254;50.956;7.010;2022-08-07T14:45:44;29.00;32.80
5274;DHT22;56254;50.956;7.010;2022-08-07T14:48:12;29.10;33.10
5274;DHT22;56254;50.956;7.010;2022-08-07T14:50:49;29.20;32.80
5274;DHT22;56254;50.956;7.010;2022-08-07T14:53:17;29.30;32.20
5274;DHT22;56254;50.956;7.010;2022-08-07T14:55:46;28.70;32.70
5274;DHT22;56254;50.956;7.010;2022-08-07T14:58:14;28.70;32.80
5274;DHT22;56254;50.956;7.010;2022-08-07T15:00:47;28.80;33.50
5274;DHT22;56254;50.956;7.010;2022-08-07T15:03:20;28.90;33.10
5274;DHT22;56254;50.956;7.010;2022-08-07T15:05:49;29.10;33.10
5274;DHT22;56254;50.956;7.010;2022-08-07T15:08:31;29.30;32.90
5274;DHT22;56254;50.956;7.010;2022-08-07T15:11:08;29.20;32.70
5274;DHT22;56254;50.956;7.010;2022-08-07T15:13:48;29.40;32.90
5274;DHT22;56254;50.956;7.010;2022-08-07T15:16:15;29.30;32.30
5274;DHT22;56254;50.956;7.010;2022-08-07T15:18:54;28.80;32.50
5274;DHT22;56254;50.956;7.010;2022-08-07T15:21:30;28.70;32.70
5274;DHT22;56254;50.956;7.010;2022-08-07T15:23:58;28.70;32.70
5274;DHT22;56254;50.956;7.010;2022-08-07T15:26:40;28.80;32.50
5274;DHT22;56254;50.956;7.010;2022-08-07T15:29:11;29.00;32.40
5274;DHT22;56254;50.956;7.010;2022-08-07T15:31:39;29.00;32.50
5274;DHT22;56254;50.956;7.010;2022-08-07T15:34:07;29.10;32.90
5274;DHT22;56254;50.956;7.010;2022-08-07T15:36:35;29.20;32.20
5274;DHT22;56254;50.956;7.010;2022-08-07T15:39:08;29.10;32.70
5274;DHT22;56254;50.956;7.010;2022-08-07T15:41:59;29.00;32.30
5274;DHT22;56254;50.956;7.010;2022-08-07T15:44:38;28.80;32.30
5274;DHT22;56254;50.956;7.010;2022-08-07T15:47:08;28.90;32.70
5274;DHT22;56254;50.956;7.010;2022-08-07T15:49:36;28.90;32.60
5274;DHT22;56254;50.956;7.010;2022-08-07T15:52:04;28.60;33.20
5274;DHT22;56254;50.956;7.010;2022-08-07T15:54:38;28.50;33.30
5274;DHT22;56254;50.956;7.010;2022-08-07T15:57:07;28.60;33.90
5274;DHT22;56254;50.956;7.010;2022-08-07T15:59:36;28.50;33.80
5274;DHT22;56254;50.956;7.010;2022-08-07T16:02:08;28.60;33.70
5274;DHT22;56254;50.956;7.010;2022-08-07T16:04:36;28.60;33.20
5274;DHT22;56254;50.956;7.010;2022-08-07T16:07:05;28.70;33.80
5274;DHT22;56254;50.956;7.010;2022-08-07T16:09:49;28.80;34.20
5274;DHT22;56254;50.956;7.010;2022-08-07T16:31:24;28.40;33.40
5274;DHT22;56254;50.956;7.010;2022-08-07T16:33:53;28.20;33.30
5274;DHT22;56254;50.956;7.010;2022-08-07T16:36:44;28.30;33.80
5274;DHT22;56254;50.956;7.010;2022-08-07T16:50:10;28.00;33.40
5274;DHT22;56254;50.956;7.010;2022-08-07T16:52:52;28.00;34.40
5274;DHT22;56254;50.956;7.010;2022-08-07T16:58:22;27.90;33.60
5274;DHT22;56254;50.956;7.010;2022-08-07T17:01:26;27.90;33.50
5274;DHT22;56254;50.956;7.010;2022-08-07T17:04:09;27.70;33.40
5274;DHT22;56254;50.956;7.010;2022-08-07T17:06:54;27.60;34.00
5274;DHT22;56254;50.956;7.010;2022-08-07T17:09:45;27.70;34.00
5274;DHT22;56254;50.956;7.010;2022-08-07T17:15:29;27.60;34.10
5274;DHT22;56254;50.956;7.010;2022-08-07T17:18:09;27.60;33.70
5274;DHT22;56254;50.956;7.010;2022-08-07T17:20:38;27.50;33.70
5274;DHT22;56254;50.956;7.010;2022-08-07T17:26:01;27.30;34.20
5274;DHT22;56254;50.956;7.010;2022-08-07T17:28:55;27.20;33.40
5274;DHT22;56254;50.956;7.010;2022-08-07T17:31:33;27.10;34.40
5274;DHT22;56254;50.956;7.010;2022-08-07T17:34:18;27.20;34.00
5274;DHT22;56254;50.956;7.010;2022-08-07T17:36:53;27.20;34.50
5274;DHT22;56254;50.956;7.010;2022-08-07T17:44:57;27.10;35.50
5274;DHT22;56254;50.956;7.010;2022-08-07T17:50:48;27.00;34.90
5274;DHT22;56254;50.956;7.010;2022-08-07T17:53:27;26.80;34.30
5274;DHT22;56254;50.956;7.010;2022-08-07T17:56:21;26.80;34.30
5274;DHT22;56254;50.956;7.010;2022-08-07T17:59:21;26.80;34.30
5274;DHT22;56254;50.956;7.010;2022-08-07T18:02:00;26.60;34.10
5274;DHT22;56254;50.956;7.010;2022-08-07T18:04:46;26.60;34.30
5274;DHT22;56254;50.956;7.010;2022-08-07T18:07:27;26.50;34.30
5274;DHT22;56254;50.956;7.010;2022-08-07T18:09:59;26.50;34.00
5274;DHT22;56254;50.956;7.010;2022-08-07T18:12:50;26.50;33.80
5274;DHT22;56254;50.956;7.010;2022-08-07T18:18:10;26.40;34.50
5274;DHT22;56254;50.956;7.010;2022-08-07T18:20:42;26.30;35.20
5274;DHT22;56254;50.956;7.010;2022-08-07T18:23:16;26.20;35.10
5274;DHT22;56254;50.956;7.010;2022-08-07T18:25:57;26.10;35.20
5274;DHT22;56254;50.956;7.010;2022-08-07T18:28:37;26.00;34.90
5274;DHT22;56254;50.956;7.010;2022-08-07T18:31:15;26.00;35.60
5274;DHT22;56254;50.956;7.010;2022-08-07T18:34:05;25.90;35.20
5274;DHT22;56254;50.956;7.010;2022-08-07T18:39:51;25.70;35.90
5274;DHT22;56254;50.956;7.010;2022-08-07T18:42:35;25.60;36.00
5274;DHT22;56254;50.956;7.010;2022-08-07T18:45:12;25.50;36.20
5274;DHT22;56254;50.956;7.010;2022-08-07T18:50:28;25.40;36.60
5274;DHT22;56254;50.956;7.010;2022-08-07T19:02:24;25.10;37.20
5274;DHT22;56254;50.956;7.010;2022-08-07T19:10:04;24.90;37.40
5274;DHT22;56254;50.956;7.010;2022-08-07T19:15:46;24.80;37.80
5274;DHT22;56254;50.956;7.010;2022-08-07T19:17:58;24.70;38.10
5274;DHT22;56254;50.956;7.010;2022-08-07T19:20:37;24.50;38.00
5274;DHT22;56254;50.956;7.010;2022-08-07T19:23:49;24.50;38.60
5274;DHT22;56254;50.956;7.010;2022-08-07T19:26:10;24.50;38.80
5274;DHT22;56254;50.956;7.010;2022-08-07T19:28:45;24.50;39.30
5274;DHT22;56254;50.956;7.010;2022-08-07T19:31:24;24.40;40.30
5274;DHT22;56254;50.956;7.010;2022-08-07T19:33:58;24.40;40.60
5274;DHT22;56254;50.956;7.010;2022-08-07T19:36:29;24.40;41.40
5274;DHT22;56254;50.956;7.010;2022-08-07T19:39:01;24.20;41.80
5274;DHT22;56254;50.956;7.010;2022-08-07T19:41:39;24.30;42.30
5274;DHT22;56254;50.956;7.010;2022-08-07T19:44:25;24.30;42.90
5274;DHT22;56254;50.956;7.010;2022-08-07T19:46:54;24.20;43.40
5274;DHT22;56254;50.956;7.010;2022-08-07T19:49:27;24.10;43.30
5274;DHT22;56254;50.956;7.010;2022-08-07T19:51:55;24.10;44.00
5274;DHT22;56254;50.956;7.010;2022-08-07T19:54:24;24.10;44.40
5274;DHT22;56254;50.956;7.010;2022-08-07T19:57:00;24.00;44.50
5274;DHT22;56254;50.956;7.010;2022-08-07T19:59:33;24.00;44.90
5274;DHT22;56254;50.956;7.010;2022-08-07T20:02:01;23.90;45.10
5274;DHT22;56254;50.956;7.010;2022-08-07T20:04:32;23.90;45.40
5274;DHT22;56254;50.956;7.010;2022-08-07T20:07:01;23.80;45.60
5274;DHT22;56254;50.956;7.010;2022-08-07T20:09:29;23.80;45.70
5274;DHT22;56254;50.956;7.010;2022-08-07T20:11:56;23.80;45.60
5274;DHT22;56254;50.956;7.010;2022-08-07T20:14:33;23.70;46.50
5274;DHT22;56254;50.956;7.010;2022-08-07T20:17:02;23.60;46.00
5274;DHT22;56254;50.956;7.010;2022-08-07T20:19:29;23.70;46.60
5274;DHT22;56254;50.956;7.010;2022-08-07T20:21:57;23.60;47.50
5274;DHT22;56254;50.956;7.010;2022-08-07T20:24:51;23.60;47.90
5274;DHT22;56254;50.956;7.010;2022-08-07T20:27:22;23.50;48.30
5274;DHT22;56254;50.956;7.010;2022-08-07T20:29:50;23.40;48.60
5274;DHT22;56254;50.956;7.010;2022-08-07T20:32:21;23.40;48.40